createdAt,value
2018-08-28T00:02:22.073Z,61.70
2018-08-28T00:07:25.609Z,61.96
2018-08-28T00:12:29.119Z,61.98
2018-08-28T00:17:32.588Z,61.79
2018-08-28T00:22:36.220Z,61.72
2018-08-28T00:27:40.044Z,61.83
2018-08-28T00:32:43.607Z,61.93
2018-08-28T00:37:47.922Z,61.90
2018-08-28T00:42:51.554Z,62.36
2018-08-28T00:47:55.139Z,62.48
2018-08-28T00:52:58.667Z,62.64
2018-08-28T00:58:02.224Z,63.00
2018-08-28T01:03:05.909Z,62.83
2018-08-28T01:08:09.421Z,63.71
2018-08-28T01:13:12.946Z,63.90
2018-08-28T01:18:16.488Z,63.78
2018-08-28T01:23:20.012Z,63.88
2018-08-28T01:28:23.505Z,63.95
2018-08-28T01:33:27.079Z,64.63
2018-08-28T01:38:30.674Z,65.32
2018-08-28T01:43:34.227Z,66.09
2018-08-28T01:48:37.793Z,64.82
2018-08-28T01:53:41.355Z,65.14
2018-08-28T01:58:44.999Z,64.47
2018-08-28T02:08:58.153Z,65.02
2018-08-28T02:14:01.699Z,65.25
2018-08-28T02:19:05.238Z,65.87
2018-08-28T02:24:08.772Z,66.03
2018-08-28T02:29:12.374Z,66.89
2018-08-28T02:34:15.836Z,66.74
2018-08-28T02:39:19.361Z,66.08
2018-08-28T02:44:22.931Z,65.84
2018-08-28T02:49:26.450Z,65.97
2018-08-28T02:54:29.945Z,66.42
2018-08-28T02:59:33.435Z,66.02
2018-08-28T03:04:36.914Z,66.61
2018-08-28T03:09:40.393Z,66.72
2018-08-28T03:14:43.827Z,66.85
2018-08-28T03:19:47.366Z,66.44
2018-08-28T03:24:50.834Z,66.11
2018-08-28T03:29:54.385Z,65.77
2018-08-28T03:34:57.838Z,66.29
2018-08-28T03:40:02.006Z,66.56
2018-08-28T03:45:05.747Z,67.81
2018-08-28T03:50:09.274Z,67.43
2018-08-28T03:55:12.746Z,67.76
2018-08-28T04:00:16.240Z,67.52
2018-08-28T04:05:19.691Z,68.01
2018-08-28T04:10:23.266Z,67.52
2018-08-28T04:15:26.766Z,67.76
2018-08-28T04:20:30.200Z,68.24
2018-08-28T04:25:33.753Z,67.98
2018-08-28T04:30:37.444Z,67.86
2018-08-28T04:35:40.918Z,67.85
2018-08-28T04:40:44.399Z,67.74
2018-08-28T04:45:48.127Z,67.30
2018-08-28T04:50:51.647Z,66.34
2018-08-28T04:55:55.182Z,64.75
2018-08-28T05:00:58.907Z,63.63
2018-08-28T05:06:02.443Z,62.92
2018-08-28T05:11:05.979Z,62.78
2018-08-28T05:16:09.581Z,62.33
2018-08-28T05:21:13.132Z,62.60
2018-08-28T05:26:16.671Z,61.30
2018-08-28T05:31:20.190Z,61.53
2018-08-28T05:36:23.773Z,61.29
2018-08-28T05:41:27.319Z,60.38
2018-08-28T05:46:30.926Z,60.24
2018-08-28T05:51:34.452Z,59.86
2018-08-28T05:56:37.930Z,58.99
2018-08-28T06:01:41.434Z,58.59
2018-08-28T06:06:44.953Z,58.13
2018-08-28T06:11:48.542Z,57.63
2018-08-28T06:16:52.095Z,57.08
2018-08-28T06:21:55.601Z,56.37
2018-08-28T06:26:59.149Z,56.30
2018-08-28T06:32:02.667Z,56.17
2018-08-28T06:37:06.208Z,56.20
2018-08-28T06:42:09.735Z,55.46
2018-08-28T06:47:13.286Z,55.55
2018-08-28T06:52:16.804Z,55.29
2018-08-28T06:57:20.338Z,53.91
2018-08-28T07:02:23.871Z,54.88
2018-08-28T07:07:27.439Z,54.36
2018-08-28T07:12:30.924Z,53.50
2018-08-28T07:17:34.423Z,54.11
2018-08-28T07:22:38.718Z,53.92
2018-08-28T07:27:42.252Z,53.55
2018-08-28T07:32:45.753Z,52.79
2018-08-28T07:37:49.242Z,52.95
2018-08-28T07:42:54.160Z,53.12
2018-08-28T07:47:57.629Z,52.84
2018-08-28T07:53:01.120Z,52.67
2018-08-28T07:58:04.640Z,53.00
2018-08-28T08:03:08.217Z,52.77
2018-08-28T08:08:11.735Z,51.52
2018-08-28T08:13:16.673Z,51.94
2018-08-28T08:18:21.122Z,52.04
2018-08-28T08:23:24.733Z,51.33
2018-08-28T08:28:28.272Z,51.79
2018-08-28T08:33:32.045Z,50.56
2018-08-28T08:38:35.582Z,50.96
2018-08-28T08:43:39.134Z,50.18
2018-08-28T08:48:42.710Z,50.27
2018-08-28T08:53:46.254Z,51.06
2018-08-28T08:58:49.740Z,49.80
2018-08-28T09:03:53.325Z,48.13
2018-08-28T09:08:56.861Z,46.50
2018-08-28T09:14:00.389Z,45.75
2018-08-28T09:19:04.092Z,44.37
2018-08-28T09:24:07.727Z,46.37
2018-08-28T09:29:11.263Z,44.80
2018-08-28T09:34:14.826Z,45.65
2018-08-28T09:39:18.382Z,45.11
2018-08-28T09:44:21.989Z,43.66
2018-08-28T09:49:25.507Z,43.79
2018-08-28T09:54:29.017Z,44.13
2018-08-28T09:59:32.556Z,44.16
2018-08-28T10:04:36.164Z,41.23
2018-08-28T10:09:39.676Z,40.06
2018-08-28T10:14:43.210Z,41.52
2018-08-28T10:19:46.764Z,40.35
2018-08-28T10:24:50.371Z,41.19
2018-08-28T10:29:54.033Z,44.03
2018-08-28T10:34:57.583Z,43.97
2018-08-28T10:40:02.170Z,42.10
2018-08-28T10:45:06.454Z,41.55
2018-08-28T10:50:10.467Z,41.31
2018-08-28T10:55:14.059Z,39.05
2018-08-28T11:00:17.610Z,38.27
2018-08-28T11:05:21.190Z,38.58
2018-08-28T11:10:24.766Z,38.39
2018-08-28T11:15:28.320Z,38.98
2018-08-28T11:20:31.926Z,38.67
2018-08-28T11:25:35.519Z,36.14
2018-08-28T11:30:39.087Z,35.67
2018-08-28T11:35:42.665Z,35.03
2018-08-28T11:40:46.154Z,36.63
2018-08-28T11:45:49.815Z,37.60
2018-08-28T11:50:53.382Z,35.56
2018-08-28T11:55:56.934Z,33.16
2018-08-28T12:01:00.627Z,25.81
2018-08-28T12:06:04.178Z,33.26
2018-08-28T12:11:07.688Z,34.69
2018-08-28T12:16:11.215Z,36.45
2018-08-28T12:21:14.786Z,35.55
2018-08-28T12:26:18.328Z,34.82
2018-08-28T12:31:21.890Z,30.58
2018-08-28T12:36:25.433Z,31.06
2018-08-28T12:41:28.949Z,32.57
2018-08-28T12:46:32.487Z,31.18
2018-08-28T12:51:36.004Z,28.34
2018-08-28T12:56:39.567Z,26.08
2018-08-28T13:01:43.108Z,31.31
2018-08-28T13:06:46.566Z,32.35
2018-08-28T13:11:50.093Z,32.89
2018-08-28T13:16:53.658Z,21.03
2018-08-28T13:21:57.160Z,22.31
2018-08-28T13:27:00.645Z,22.08
2018-08-28T13:32:05.733Z,19.96
2018-08-28T13:37:09.233Z,22.75
2018-08-28T13:42:12.774Z,24.41
2018-08-28T13:47:16.467Z,25.16
2018-08-28T13:52:19.826Z,24.14
2018-08-28T13:57:23.459Z,24.88
2018-08-28T14:02:26.957Z,24.17
2018-08-28T14:07:30.521Z,25.42
2018-08-28T14:12:34.074Z,25.99
2018-08-28T14:17:37.606Z,28.19
2018-08-28T14:22:41.250Z,28.21
2018-08-28T14:27:44.800Z,30.53
2018-08-28T14:32:48.457Z,30.28
2018-08-28T14:37:52.093Z,30.31
2018-08-28T14:42:55.918Z,31.00
2018-08-28T14:47:59.490Z,30.66
2018-08-28T14:53:03.048Z,30.90
2018-08-28T14:58:06.626Z,30.15
2018-08-28T15:03:10.218Z,30.69
2018-08-28T15:08:13.902Z,31.48
2018-08-28T15:13:17.482Z,31.08
2018-08-28T15:18:21.063Z,32.16
2018-08-28T15:23:24.534Z,31.33
2018-08-28T15:28:28.070Z,32.40
2018-08-28T15:33:31.585Z,31.13
2018-08-28T15:38:35.152Z,31.62
2018-08-28T15:43:38.737Z,31.64
2018-08-28T15:48:42.282Z,31.42
2018-08-28T15:53:45.810Z,30.45
2018-08-28T15:58:49.529Z,30.88
2018-08-28T16:03:53.045Z,31.31
2018-08-28T16:08:56.610Z,29.88
2018-08-28T16:14:00.142Z,31.26
2018-08-28T16:19:04.077Z,30.60
2018-08-28T16:24:07.608Z,30.07
2018-08-28T16:29:11.510Z,30.97
2018-08-28T16:34:15.115Z,31.14
2018-08-28T16:39:18.716Z,32.14
2018-08-28T16:44:22.479Z,33.50
2018-08-28T16:49:26.213Z,30.91
2018-08-28T16:54:29.797Z,32.19
2018-08-28T16:59:33.759Z,32.98
2018-08-28T17:04:37.327Z,32.88
2018-08-28T17:09:40.844Z,33.26
2018-08-28T17:14:44.880Z,34.04
2018-08-28T17:19:48.729Z,32.95
2018-08-28T17:24:52.454Z,35.52
2018-08-28T17:29:56.475Z,35.60
2018-08-28T17:35:00.175Z,37.48
2018-08-28T17:40:04.865Z,37.58
2018-08-28T17:45:09.072Z,37.73
2018-08-28T17:50:12.623Z,38.43
2018-08-28T17:55:16.491Z,38.99
2018-08-28T18:00:20.246Z,39.59
2018-08-28T18:05:24.289Z,39.91
2018-08-28T18:10:28.015Z,40.23
2018-08-28T18:15:31.610Z,39.99
2018-08-28T18:20:35.247Z,39.90
2018-08-28T18:25:38.770Z,41.05
2018-08-28T18:30:42.272Z,41.46
2018-08-28T18:35:45.921Z,41.67
2018-08-28T18:40:49.755Z,42.04
2018-08-28T18:45:53.416Z,42.96
2018-08-28T18:50:56.958Z,43.90
2018-08-28T18:56:00.559Z,43.92
2018-08-28T19:01:04.075Z,43.82
2018-08-28T19:06:07.674Z,44.18
2018-08-28T19:11:11.331Z,44.80
2018-08-28T19:16:15.090Z,45.10
2018-08-28T19:21:18.652Z,44.57
2018-08-28T19:26:22.375Z,44.55
2018-08-28T19:31:25.939Z,44.86
2018-08-28T19:36:29.548Z,45.23
2018-08-28T19:41:33.261Z,45.40
2018-08-28T19:46:36.804Z,45.60
2018-08-28T19:51:40.568Z,46.41
2018-08-28T19:56:44.157Z,46.93
2018-08-28T20:01:47.670Z,47.83
2018-08-28T20:06:51.257Z,48.24
2018-08-28T20:11:54.842Z,48.33
2018-08-28T20:16:58.481Z,49.07
2018-08-28T20:22:01.965Z,49.26
2018-08-28T20:27:05.921Z,48.79
2018-08-28T20:32:09.546Z,49.53
2018-08-28T20:37:13.098Z,49.37
2018-08-28T20:42:16.818Z,49.54
2018-08-28T20:47:20.433Z,49.97
2018-08-28T20:52:24.042Z,50.28
2018-08-28T20:57:27.616Z,50.33
2018-08-28T21:02:31.318Z,49.99
2018-08-28T21:07:34.904Z,49.85
2018-08-28T21:12:38.605Z,50.20
2018-08-28T21:17:42.278Z,50.10
2018-08-28T21:22:45.882Z,50.34
2018-08-28T21:27:49.573Z,50.69
2018-08-28T21:32:53.151Z,50.65
2018-08-28T21:37:56.713Z,50.04
2018-08-28T21:43:00.213Z,51.04
2018-08-28T21:48:03.848Z,51.28
2018-08-28T21:53:07.443Z,51.59
2018-08-28T21:58:10.997Z,51.93
2018-08-28T22:03:14.573Z,52.17
2018-08-28T22:08:18.066Z,52.05
2018-08-28T22:13:21.681Z,52.38
2018-08-28T22:18:25.201Z,51.87
2018-08-28T22:23:29.624Z,52.57
2018-08-28T22:28:33.187Z,52.53
2018-08-28T22:33:36.732Z,52.90
2018-08-28T22:38:43.340Z,53.00
2018-08-28T22:43:46.875Z,53.66
2018-08-28T22:48:50.466Z,53.27
2018-08-28T22:53:54.008Z,53.79
2018-08-28T22:58:57.606Z,53.55
2018-08-28T23:04:01.102Z,53.56
2018-08-28T23:09:05.549Z,53.43
2018-08-28T23:14:09.041Z,53.86
2018-08-28T23:19:12.517Z,53.74
2018-08-28T23:24:16.008Z,54.11
2018-08-28T23:29:19.516Z,54.36
2018-08-28T23:34:23.000Z,54.21
2018-08-28T23:39:26.553Z,54.63
2018-08-28T23:44:30.047Z,55.05
2018-08-28T23:49:33.556Z,54.44
2018-08-28T23:54:37.127Z,53.95
2018-08-28T23:59:40.746Z,54.28
